sensor_id;sensor_type;location;lat;lon;timestamp;pressure;altitude;pressure_sealevel;temperature;humidity
58373;BME280;44177;43.356;27.672;2023-09-30T00:00:00;98278.91;;;16.08;50.67
58373;BME280;44177;43.356;27.672;2023-09-30T00:02:26;98274.66;;;16.18;50.18
58373;BME280;44177;43.356;27.672;2023-09-30T00:04:52;98266.72;;;16.09;50.23
58373;BME280;44177;43.356;27.672;2023-09-30T00:07:18;98279.81;;;16.23;50.35
58373;BME280;44177;43.356;27.672;2023-09-30T00:09:43;98278.66;;;16.24;49.94
58373;BME280;44177;43.356;27.672;2023-09-30T00:12:09;98266.81;;;16.20;50.48
58373;BME280;44177;43.356;27.672;2023-09-30T00:14:34;98267.72;;;16.39;49.64
58373;BME280;44177;43.356;27.672;2023-09-30T00:17:01;98272.41;;;16.35;49.86
58373;BME280;44177;43.356;27.672;2023-09-30T00:19:27;98255.06;;;16.27;49.93
58373;BME280;44177;43.356;27.672;2023-09-30T00:21:52;98236.94;;;16.22;49.99
58373;BME280;44177;43.356;27.672;2023-09-30T00:24:17;98266.56;;;16.44;49.18
58373;BME280;44177;43.356;27.672;2023-09-30T00:26:43;98266.16;;;16.41;48.81
58373;BME280;44177;43.356;27.672;2023-09-30T00:29:08;98258.63;;;16.35;49.10
58373;BME280;44177;43.356;27.672;2023-09-30T00:31:35;98251.59;;;16.37;48.85
58373;BME280;44177;43.356;27.672;2023-09-30T00:34:01;98255.09;;;16.34;49.04
58373;BME280;44177;43.356;27.672;2023-09-30T00:36:26;98240.88;;;16.25;48.99
58373;BME280;44177;43.356;27.672;2023-09-30T00:38:52;98254.22;;;16.19;49.09
58373;BME280;44177;43.356;27.672;2023-09-30T00:41:17;98246.75;;;16.16;48.83
58373;BME280;44177;43.356;27.672;2023-09-30T00:43:45;98244.31;;;16.11;48.98
58373;BME280;44177;43.356;27.672;2023-09-30T00:48:39;98253.31;;;16.01;49.00
58373;BME280;44177;43.356;27.672;2023-09-30T00:51:05;98249.00;;;16.03;48.85
58373;BME280;44177;43.356;27.672;2023-09-30T00:53:31;98248.53;;;15.94;48.95
58373;BME280;44177;43.356;27.672;2023-09-30T00:55:58;98244.59;;;15.91;49.13
58373;BME280;44177;43.356;27.672;2023-09-30T00:58:25;98246.94;;;15.89;48.60
58373;BME280;44177;43.356;27.672;2023-09-30T01:00:55;98252.78;;;15.84;49.16
58373;BME280;44177;43.356;27.672;2023-09-30T01:03:22;98248.78;;;15.78;49.38
58373;BME280;44177;43.356;27.672;2023-09-30T01:05:48;98252.31;;;15.78;49.82
58373;BME280;44177;43.356;27.672;2023-09-30T01:08:15;98234.84;;;15.60;49.97
58373;BME280;44177;43.356;27.672;2023-09-30T01:10:42;98229.63;;;15.44;50.23
58373;BME280;44177;43.356;27.672;2023-09-30T01:13:07;98252.53;;;15.59;50.60
58373;BME280;44177;43.356;27.672;2023-09-30T01:15:33;98245.75;;;15.49;50.41
58373;BME280;44177;43.356;27.672;2023-09-30T01:17:58;98249.63;;;15.44;50.27
58373;BME280;44177;43.356;27.672;2023-09-30T01:20:24;98255.06;;;15.37;50.67
58373;BME280;44177;43.356;27.672;2023-09-30T01:22:49;98258.19;;;15.36;50.46
58373;BME280;44177;43.356;27.672;2023-09-30T01:25:15;98262.16;;;15.38;50.55
58373;BME280;44177;43.356;27.672;2023-09-30T01:27:40;98263.66;;;15.32;50.44
58373;BME280;44177;43.356;27.672;2023-09-30T01:30:06;98277.13;;;15.44;50.43
58373;BME280;44177;43.356;27.672;2023-09-30T01:32:36;98277.06;;;15.37;50.49
58373;BME280;44177;43.356;27.672;2023-09-30T01:35:02;98279.38;;;15.35;50.64
58373;BME280;44177;43.356;27.672;2023-09-30T01:37:28;98278.19;;;15.32;50.56
58373;BME280;44177;43.356;27.672;2023-09-30T01:39:53;98283.19;;;15.23;51.08
58373;BME280;44177;43.356;27.672;2023-09-30T01:42:20;98278.53;;;15.27;51.17
58373;BME280;44177;43.356;27.672;2023-09-30T01:44:45;98282.03;;;15.24;50.90
58373;BME280;44177;43.356;27.672;2023-09-30T01:47:11;98290.56;;;15.15;51.46
58373;BME280;44177;43.356;27.672;2023-09-30T01:49:37;98294.06;;;15.12;51.57
58373;BME280;44177;43.356;27.672;2023-09-30T01:52:03;98289.38;;;15.13;51.74
58373;BME280;44177;43.356;27.672;2023-09-30T01:54:28;98296.41;;;15.10;51.69
58373;BME280;44177;43.356;27.672;2023-09-30T01:56:54;98291.59;;;15.04;52.11
58373;BME280;44177;43.356;27.672;2023-09-30T01:59:19;98282.03;;;14.90;51.70
58373;BME280;44177;43.356;27.672;2023-09-30T02:01:44;98281.78;;;15.03;51.75
58373;BME280;44177;43.356;27.672;2023-09-30T02:04:13;98280.56;;;15.00;52.15
58373;BME280;44177;43.356;27.672;2023-09-30T02:06:43;98283.66;;;14.95;52.40
58373;BME280;44177;43.356;27.672;2023-09-30T02:09:09;98290.72;;;14.96;52.33
58373;BME280;44177;43.356;27.672;2023-09-30T02:11:35;98289.94;;;14.95;52.20
58373;BME280;44177;43.356;27.672;2023-09-30T02:14:02;98283.25;;;14.93;52.49
58373;BME280;44177;43.356;27.672;2023-09-30T02:16:27;98288.31;;;14.91;52.59
58373;BME280;44177;43.356;27.672;2023-09-30T02:18:53;98278.47;;;14.90;52.54
58373;BME280;44177;43.356;27.672;2023-09-30T02:21:19;98277.19;;;14.80;52.37
58373;BME280;44177;43.356;27.672;2023-09-30T02:23:44;98277.22;;;14.83;52.93
58373;BME280;44177;43.356;27.672;2023-09-30T02:26:14;98256.00;;;14.80;52.49
58373;BME280;44177;43.356;27.672;2023-09-30T02:28:39;98268.56;;;14.81;52.36
58373;BME280;44177;43.356;27.672;2023-09-30T02:31:05;98272.09;;;14.78;52.63
58373;BME280;44177;43.356;27.672;2023-09-30T02:33:33;98271.00;;;14.87;52.77
58373;BME280;44177;43.356;27.672;2023-09-30T02:36:01;98273.00;;;14.90;52.65
58373;BME280;44177;43.356;27.672;2023-09-30T02:38:26;98261.50;;;14.80;52.65
58373;BME280;44177;43.356;27.672;2023-09-30T02:40:54;98176.44;;;14.23;52.44
58373;BME280;44177;43.356;27.672;2023-09-30T02:43:19;98258.66;;;14.73;52.83
58373;BME280;44177;43.356;27.672;2023-09-30T02:45:45;98272.13;;;14.82;52.75
58373;BME280;44177;43.356;27.672;2023-09-30T02:48:11;98272.56;;;14.88;52.47
58373;BME280;44177;43.356;27.672;2023-09-30T02:50:37;98263.53;;;14.87;52.20
58373;BME280;44177;43.356;27.672;2023-09-30T02:53:02;98262.25;;;14.77;52.64
58373;BME280;44177;43.356;27.672;2023-09-30T02:55:29;98263.88;;;14.82;52.44
58373;BME280;44177;43.356;27.672;2023-09-30T02:57:54;98250.03;;;14.71;52.60
58373;BME280;44177;43.356;27.672;2023-09-30T03:00:21;98263.06;;;14.81;52.65
58373;BME280;44177;43.356;27.672;2023-09-30T03:02:52;98225.41;;;14.51;52.92
58373;BME280;44177;43.356;27.672;2023-09-30T03:05:18;98251.91;;;14.67;52.64
58373;BME280;44177;43.356;27.672;2023-09-30T03:07:45;98270.75;;;14.68;53.24
58373;BME280;44177;43.356;27.672;2023-09-30T03:10:11;98232.16;;;14.58;52.83
58373;BME280;44177;43.356;27.672;2023-09-30T03:12:38;98254.19;;;14.65;52.71
58373;BME280;44177;43.356;27.672;2023-09-30T03:15:04;98274.34;;;14.73;53.03
58373;BME280;44177;43.356;27.672;2023-09-30T03:17:32;98268.00;;;14.68;52.95
58373;BME280;44177;43.356;27.672;2023-09-30T03:20:01;98253.28;;;14.53;53.16
58373;BME280;44177;43.356;27.672;2023-09-30T03:22:26;98258.22;;;14.41;53.63
58373;BME280;44177;43.356;27.672;2023-09-30T03:24:52;98255.50;;;14.44;53.41
58373;BME280;44177;43.356;27.672;2023-09-30T03:27:19;98275.06;;;14.39;54.15
58373;BME280;44177;43.356;27.672;2023-09-30T03:29:45;98269.81;;;14.30;54.33
58373;BME280;44177;43.356;27.672;2023-09-30T03:32:11;98272.25;;;14.35;54.22
58373;BME280;44177;43.356;27.672;2023-09-30T03:34:36;98271.41;;;14.31;54.53
58373;BME280;44177;43.356;27.672;2023-09-30T03:37:02;98268.59;;;14.28;54.61
58373;BME280;44177;43.356;27.672;2023-09-30T03:39:28;98271.66;;;14.23;54.98
58373;BME280;44177;43.356;27.672;2023-09-30T03:41:55;98273.56;;;14.18;55.07
58373;BME280;44177;43.356;27.672;2023-09-30T03:44:21;98269.97;;;14.14;55.60
58373;BME280;44177;43.356;27.672;2023-09-30T03:46:48;98270.28;;;14.09;55.78
58373;BME280;44177;43.356;27.672;2023-09-30T03:49:13;98271.97;;;14.17;55.46
58373;BME280;44177;43.356;27.672;2023-09-30T03:51:39;98275.47;;;14.14;55.62
58373;BME280;44177;43.356;27.672;2023-09-30T03:54:05;98271.50;;;14.12;55.80
58373;BME280;44177;43.356;27.672;2023-09-30T03:56:31;98270.75;;;14.15;55.69
58373;BME280;44177;43.356;27.672;2023-09-30T03:58:56;98269.94;;;14.11;55.57
58373;BME280;44177;43.356;27.672;2023-09-30T04:01:22;98272.63;;;14.07;55.92
58373;BME280;44177;43.356;27.672;2023-09-30T04:03:49;98276.81;;;14.01;56.45
58373;BME280;44177;43.356;27.672;2023-09-30T04:06:14;98275.66;;;14.02;56.37
58373;BME280;44177;43.356;27.672;2023-09-30T04:08:40;98278.44;;;14.05;56.18
58373;BME280;44177;43.356;27.672;2023-09-30T04:11:06;98276.06;;;14.04;56.13
58373;BME280;44177;43.356;27.672;2023-09-30T04:13:31;98276.50;;;14.06;56.24
58373;BME280;44177;43.356;27.672;2023-09-30T04:15:58;98276.41;;;13.99;56.08
58373;BME280;44177;43.356;27.672;2023-09-30T04:18:24;98281.44;;;13.97;56.49
58373;BME280;44177;43.356;27.672;2023-09-30T04:20:54;98278.28;;;13.95;57.13
58373;BME280;44177;43.356;27.672;2023-09-30T04:23:20;98288.84;;;13.93;56.82
58373;BME280;44177;43.356;27.672;2023-09-30T04:25:46;98283.41;;;13.96;56.63
58373;BME280;44177;43.356;27.672;2023-09-30T04:28:12;98285.47;;;14.03;56.46
58373;BME280;44177;43.356;27.672;2023-09-30T04:30:39;98287.06;;;14.04;56.73
58373;BME280;44177;43.356;27.672;2023-09-30T04:33:05;98278.38;;;14.02;56.46
58373;BME280;44177;43.356;27.672;2023-09-30T04:35:30;98287.22;;;14.15;56.82
58373;BME280;44177;43.356;27.672;2023-09-30T04:37:56;98292.03;;;14.21;56.20
58373;BME280;44177;43.356;27.672;2023-09-30T04:40:26;98294.34;;;14.19;56.42
58373;BME280;44177;43.356;27.672;2023-09-30T04:42:52;98291.53;;;14.16;56.98
58373;BME280;44177;43.356;27.672;2023-09-30T04:45:20;98287.38;;;14.26;56.38
58373;BME280;44177;43.356;27.672;2023-09-30T04:47:46;98293.84;;;14.37;56.17
58373;BME280;44177;43.356;27.672;2023-09-30T04:50:13;98284.44;;;14.38;56.30
58373;BME280;44177;43.356;27.672;2023-09-30T04:52:41;98289.94;;;14.38;56.25
58373;BME280;44177;43.356;27.672;2023-09-30T04:55:07;98298.25;;;14.45;56.21
58373;BME280;44177;43.356;27.672;2023-09-30T04:57:37;98291.81;;;14.61;56.11
58373;BME280;44177;43.356;27.672;2023-09-30T05:00:03;98295.34;;;14.61;56.33
58373;BME280;44177;43.356;27.672;2023-09-30T05:02:38;98299.66;;;14.62;55.77
58373;BME280;44177;43.356;27.672;2023-09-30T05:05:04;98297.31;;;14.61;56.52
58373;BME280;44177;43.356;27.672;2023-09-30T05:07:34;98294.25;;;14.66;55.88
58373;BME280;44177;43.356;27.672;2023-09-30T05:09:59;98298.47;;;14.87;55.63
58373;BME280;44177;43.356;27.672;2023-09-30T05:12:25;98297.78;;;14.97;55.53
58373;BME280;44177;43.356;27.672;2023-09-30T05:14:51;98297.88;;;15.04;55.35
58373;BME280;44177;43.356;27.672;2023-09-30T05:17:17;98297.97;;;15.11;55.28
58373;BME280;44177;43.356;27.672;2023-09-30T05:19:43;98309.94;;;15.26;55.08
58373;BME280;44177;43.356;27.672;2023-09-30T05:22:09;98304.38;;;15.57;54.01
58373;BME280;44177;43.356;27.672;2023-09-30T05:24:35;98306.72;;;15.96;53.28
58373;BME280;44177;43.356;27.672;2023-09-30T05:27:00;98294.53;;;16.49;51.44
58373;BME280;44177;43.356;27.672;2023-09-30T05:29:27;98301.06;;;16.93;50.73
58373;BME280;44177;43.356;27.672;2023-09-30T05:31:52;98306.34;;;17.27;50.22
58373;BME280;44177;43.356;27.672;2023-09-30T05:34:18;98302.88;;;17.63;48.87
58373;BME280;44177;43.356;27.672;2023-09-30T05:36:43;98298.59;;;17.83;48.03
58373;BME280;44177;43.356;27.672;2023-09-30T05:39:08;98297.84;;;18.23;47.31
58373;BME280;44177;43.356;27.672;2023-09-30T05:41:36;98293.84;;;18.56;46.62
58373;BME280;44177;43.356;27.672;2023-09-30T05:44:03;98309.94;;;18.98;46.12
58373;BME280;44177;43.356;27.672;2023-09-30T05:46:30;98313.34;;;19.31;45.46
58373;BME280;44177;43.356;27.672;2023-09-30T05:48:56;98307.38;;;19.43;44.71
58373;BME280;44177;43.356;27.672;2023-09-30T05:51:22;98315.16;;;19.63;43.93
58373;BME280;44177;43.356;27.672;2023-09-30T05:53:47;98317.28;;;20.04;43.76
58373;BME280;44177;43.356;27.672;2023-09-30T05:56:13;98317.81;;;20.33;42.94
58373;BME280;44177;43.356;27.672;2023-09-30T05:58:41;98311.13;;;20.73;42.39
58373;BME280;44177;43.356;27.672;2023-09-30T06:01:10;98301.59;;;21.12;41.35
58373;BME280;44177;43.356;27.672;2023-09-30T06:03:39;98314.84;;;21.59;40.98
58373;BME280;44177;43.356;27.672;2023-09-30T06:06:14;98310.88;;;21.87;39.46
58373;BME280;44177;43.356;27.672;2023-09-30T06:08:42;98315.91;;;21.96;39.77
58373;BME280;44177;43.356;27.672;2023-09-30T06:11:21;98313.78;;;22.04;39.76
58373;BME280;44177;43.356;27.672;2023-09-30T06:13:52;98317.81;;;22.50;38.67
58373;BME280;44177;43.356;27.672;2023-09-30T06:16:18;98318.25;;;22.49;38.76
58373;BME280;44177;43.356;27.672;2023-09-30T06:18:44;98310.47;;;22.84;38.38
58373;BME280;44177;43.356;27.672;2023-09-30T06:21:11;98315.59;;;23.46;37.04
58373;BME280;44177;43.356;27.672;2023-09-30T06:23:36;98320.34;;;23.82;36.84
58373;BME280;44177;43.356;27.672;2023-09-30T06:26:02;98314.75;;;23.82;36.43
58373;BME280;44177;43.356;27.672;2023-09-30T06:28:28;98318.59;;;23.88;35.77
58373;BME280;44177;43.356;27.672;2023-09-30T06:30:57;98318.28;;;24.19;35.44
58373;BME280;44177;43.356;27.672;2023-09-30T06:33:22;98319.03;;;24.69;34.69
58373;BME280;44177;43.356;27.672;2023-09-30T06:35:48;98321.03;;;24.98;33.77
58373;BME280;44177;43.356;27.672;2023-09-30T06:38:20;98322.84;;;25.05;33.65
58373;BME280;44177;43.356;27.672;2023-09-30T06:40:46;98319.44;;;25.27;33.62
58373;BME280;44177;43.356;27.672;2023-09-30T06:43:16;98316.84;;;25.49;33.42
58373;BME280;44177;43.356;27.672;2023-09-30T06:45:44;98324.66;;;25.67;32.57
58373;BME280;44177;43.356;27.672;2023-09-30T06:48:11;98318.75;;;25.91;32.43
58373;BME280;44177;43.356;27.672;2023-09-30T06:50:49;98311.59;;;26.15;32.00
58373;BME280;44177;43.356;27.672;2023-09-30T06:53:16;98313.75;;;26.46;31.01
58373;BME280;44177;43.356;27.672;2023-09-30T06:55:42;98306.91;;;26.83;31.02
58373;BME280;44177;43.356;27.672;2023-09-30T06:58:09;98307.31;;;26.94;30.21
58373;BME280;44177;43.356;27.672;2023-09-30T07:00:36;98315.47;;;27.01;29.77
58373;BME280;44177;43.356;27.672;2023-09-30T07:03:02;98304.13;;;27.58;29.47
58373;BME280;44177;43.356;27.672;2023-09-30T07:05:28;98317.13;;;27.43;29.14
58373;BME280;44177;43.356;27.672;2023-09-30T07:07:54;98308.22;;;27.67;28.59
58373;BME280;44177;43.356;27.672;2023-09-30T07:10:20;98309.09;;;27.95;28.70
58373;BME280;44177;43.356;27.672;2023-09-30T07:12:46;98318.75;;;28.53;27.63
58373;BME280;44177;43.356;27.672;2023-09-30T07:15:11;98314.72;;;28.82;26.85
58373;BME280;44177;43.356;27.672;2023-09-30T07:17:37;98308.94;;;28.95;26.60
58373;BME280;44177;43.356;27.672;2023-09-30T07:20:04;98310.66;;;28.74;26.31
58373;BME280;44177;43.356;27.672;2023-09-30T07:22:30;98305.00;;;28.65;26.18
58373;BME280;44177;43.356;27.672;2023-09-30T07:24:56;98309.25;;;29.07;25.75
58373;BME280;44177;43.356;27.672;2023-09-30T07:27:23;98293.53;;;29.52;26.45
58373;BME280;44177;43.356;27.672;2023-09-30T07:29:49;98302.63;;;29.47;24.63
58373;BME280;44177;43.356;27.672;2023-09-30T07:32:14;98304.56;;;30.08;24.19
58373;BME280;44177;43.356;27.672;2023-09-30T07:34:40;98309.69;;;29.76;24.59
58373;BME280;44177;43.356;27.672;2023-09-30T07:37:06;98293.00;;;29.02;25.02
58373;BME280;44177;43.356;27.672;2023-09-30T07:39:31;98313.63;;;28.98;25.46
58373;BME280;44177;43.356;27.672;2023-09-30T07:41:57;98322.31;;;28.63;25.77
58373;BME280;44177;43.356;27.672;2023-09-30T07:44:22;98316.75;;;28.73;26.07
58373;BME280;44177;43.356;27.672;2023-09-30T07:46:47;98322.03;;;29.08;25.98
58373;BME280;44177;43.356;27.672;2023-09-30T07:49:13;98324.84;;;28.89;26.03
58373;BME280;44177;43.356;27.672;2023-09-30T07:51:38;98320.47;;;28.79;25.68
58373;BME280;44177;43.356;27.672;2023-09-30T07:54:05;98325.66;;;28.80;26.01
58373;BME280;44177;43.356;27.672;2023-09-30T07:56:30;98319.34;;;29.23;25.87
58373;BME280;44177;43.356;27.672;2023-09-30T07:58:56;98320.25;;;29.81;25.20
58373;BME280;44177;43.356;27.672;2023-09-30T08:01:21;98309.19;;;29.77;24.98
58373;BME280;44177;43.356;27.672;2023-09-30T08:03:47;98327.69;;;29.60;24.72
58373;BME280;44177;43.356;27.672;2023-09-30T08:06:13;98318.34;;;29.87;24.62
58373;BME280;44177;43.356;27.672;2023-09-30T08:08:39;98322.44;;;29.86;25.51
58373;BME280;44177;43.356;27.672;2023-09-30T08:11:05;98321.38;;;30.17;24.58
58373;BME280;44177;43.356;27.672;2023-09-30T08:13:32;98320.66;;;30.56;24.41
58373;BME280;44177;43.356;27.672;2023-09-30T08:15:58;98318.19;;;31.42;23.83
58373;BME280;44177;43.356;27.672;2023-09-30T08:18:23;98313.59;;;31.60;22.73
58373;BME280;44177;43.356;27.672;2023-09-30T08:20:49;98312.63;;;31.78;23.00
58373;BME280;44177;43.356;27.672;2023-09-30T08:23:14;98310.75;;;32.25;22.16
58373;BME280;44177;43.356;27.672;2023-09-30T08:25:40;98309.97;;;32.46;21.73
58373;BME280;44177;43.356;27.672;2023-09-30T08:28:06;98300.25;;;32.47;21.49
58373;BME280;44177;43.356;27.672;2023-09-30T08:30:35;98304.47;;;32.36;22.07
58373;BME280;44177;43.356;27.672;2023-09-30T08:33:02;98304.44;;;32.57;21.63
58373;BME280;44177;43.356;27.672;2023-09-30T08:35:29;98299.72;;;32.89;21.22
58373;BME280;44177;43.356;27.672;2023-09-30T08:37:54;98297.13;;;32.86;21.64
58373;BME280;44177;43.356;27.672;2023-09-30T08:40:21;98298.47;;;33.49;21.11
58373;BME280;44177;43.356;27.672;2023-09-30T08:42:51;98266.47;;;33.31;20.38
58373;BME280;44177;43.356;27.672;2023-09-30T08:45:17;98296.19;;;33.85;20.81
58373;BME280;44177;43.356;27.672;2023-09-30T08:47:43;98278.34;;;34.16;20.58
58373;BME280;44177;43.356;27.672;2023-09-30T08:50:09;98287.53;;;34.06;19.93
58373;BME280;44177;43.356;27.672;2023-09-30T08:52:38;98257.28;;;33.42;20.55
58373;BME280;44177;43.356;27.672;2023-09-30T08:55:04;98286.41;;;33.22;21.02
58373;BME280;44177;43.356;27.672;2023-09-30T08:57:30;98296.84;;;33.74;19.97
58373;BME280;44177;43.356;27.672;2023-09-30T08:59:57;98276.31;;;34.23;19.35
58373;BME280;44177;43.356;27.672;2023-09-30T09:02:23;98283.97;;;34.11;19.95
58373;BME280;44177;43.356;27.672;2023-09-30T09:04:49;98295.66;;;33.54;20.28
58373;BME280;44177;43.356;27.672;2023-09-30T09:07:14;98291.72;;;33.41;19.98
58373;BME280;44177;43.356;27.672;2023-09-30T09:09:40;98284.34;;;33.49;20.42
58373;BME280;44177;43.356;27.672;2023-09-30T09:12:06;98302.31;;;33.83;19.39
58373;BME280;44177;43.356;27.672;2023-09-30T09:14:41;98280.31;;;33.61;19.38
58373;BME280;44177;43.356;27.672;2023-09-30T09:17:11;98288.81;;;33.99;19.87
58373;BME280;44177;43.356;27.672;2023-09-30T09:19:37;98283.88;;;33.94;19.29
58373;BME280;44177;43.356;27.672;2023-09-30T09:22:03;98286.50;;;34.52;18.78
58373;BME280;44177;43.356;27.672;2023-09-30T09:24:37;98279.91;;;34.23;18.99
58373;BME280;44177;43.356;27.672;2023-09-30T09:29:37;98281.28;;;33.84;19.86
58373;BME280;44177;43.356;27.672;2023-09-30T09:32:13;98282.00;;;33.47;19.36
58373;BME280;44177;43.356;27.672;2023-09-30T09:34:40;98284.25;;;33.11;20.71
58373;BME280;44177;43.356;27.672;2023-09-30T09:37:17;98243.09;;;33.04;20.59
58373;BME280;44177;43.356;27.672;2023-09-30T09:40:09;98291.63;;;32.35;20.53
58373;BME280;44177;43.356;27.672;2023-09-30T09:42:35;98283.84;;;32.51;20.90
58373;BME280;44177;43.356;27.672;2023-09-30T09:45:04;98277.00;;;32.57;20.47
58373;BME280;44177;43.356;27.672;2023-09-30T09:47:32;98268.72;;;32.74;20.76
58373;BME280;44177;43.356;27.672;2023-09-30T09:49:58;98276.06;;;32.66;20.46
58373;BME280;44177;43.356;27.672;2023-09-30T09:52:25;98275.84;;;31.87;20.86
58373;BME280;44177;43.356;27.672;2023-09-30T09:54:51;98254.78;;;32.44;20.83
58373;BME280;44177;43.356;27.672;2023-09-30T09:57:17;98261.72;;;33.49;20.31
58373;BME280;44177;43.356;27.672;2023-09-30T09:59:46;98275.53;;;33.79;19.98
58373;BME280;44177;43.356;27.672;2023-09-30T10:02:14;98248.00;;;32.78;19.96
58373;BME280;44177;43.356;27.672;2023-09-30T10:04:44;98255.66;;;33.03;20.45
58373;BME280;44177;43.356;27.672;2023-09-30T10:07:22;98258.81;;;32.38;20.59
58373;BME280;44177;43.356;27.672;2023-09-30T10:09:52;98204.19;;;32.67;20.09
58373;BME280;44177;43.356;27.672;2023-09-30T10:12:18;98261.19;;;32.66;20.36
58373;BME280;44177;43.356;27.672;2023-09-30T10:14:44;98259.44;;;32.27;21.21
58373;BME280;44177;43.356;27.672;2023-09-30T10:17:10;98252.34;;;31.75;21.14
58373;BME280;44177;43.356;27.672;2023-09-30T10:19:36;98254.75;;;31.83;21.02
58373;BME280;44177;43.356;27.672;2023-09-30T10:22:22;98248.56;;;32.20;21.20
58373;BME280;44177;43.356;27.672;2023-09-30T10:24:49;98237.69;;;31.56;21.31
58373;BME280;44177;43.356;27.672;2023-09-30T10:40:48;98232.56;;;32.32;21.35
58373;BME280;44177;43.356;27.672;2023-09-30T10:43:32;98233.47;;;32.43;21.02
58373;BME280;44177;43.356;27.672;2023-09-30T10:45:58;98230.50;;;33.05;20.69
58373;BME280;44177;43.356;27.672;2023-09-30T10:51:16;98230.94;;;32.04;20.99
58373;BME280;44177;43.356;27.672;2023-09-30T10:53:50;98228.81;;;31.63;21.71
58373;BME280;44177;43.356;27.672;2023-09-30T10:56:23;98241.69;;;31.49;22.00
58373;BME280;44177;43.356;27.672;2023-09-30T10:58:51;98231.41;;;31.01;22.21
58373;BME280;44177;43.356;27.672;2023-09-30T11:01:21;98229.75;;;30.40;22.73
58373;BME280;44177;43.356;27.672;2023-09-30T11:03:48;98221.31;;;30.65;23.34
58373;BME280;44177;43.356;27.672;2023-09-30T11:06:19;98184.47;;;31.64;22.49
58373;BME280;44177;43.356;27.672;2023-09-30T11:08:56;98218.03;;;31.11;22.93
58373;BME280;44177;43.356;27.672;2023-09-30T11:11:40;98221.63;;;30.97;22.38
58373;BME280;44177;43.356;27.672;2023-09-30T11:16:46;98218.75;;;30.67;22.98
58373;BME280;44177;43.356;27.672;2023-09-30T11:19:12;98214.81;;;30.88;22.56
58373;BME280;44177;43.356;27.672;2023-09-30T11:21:41;98209.00;;;31.58;21.87
58373;BME280;44177;43.356;27.672;2023-09-30T11:24:08;98206.94;;;31.94;21.92
58373;BME280;44177;43.356;27.672;2023-09-30T11:26:34;98210.91;;;31.81;21.84
58373;BME280;44177;43.356;27.672;2023-09-30T11:29:07;98166.69;;;31.93;22.06
58373;BME280;44177;43.356;27.672;2023-09-30T11:31:33;98196.25;;;32.39;21.09
58373;BME280;44177;43.356;27.672;2023-09-30T11:34:00;98188.75;;;31.74;21.49
58373;BME280;44177;43.356;27.672;2023-09-30T11:36:30;98192.94;;;31.28;22.16
58373;BME280;44177;43.356;27.672;2023-09-30T11:38:57;98193.53;;;30.87;22.50
58373;BME280;44177;43.356;27.672;2023-09-30T11:41:22;98193.16;;;30.65;22.33
58373;BME280;44177;43.356;27.672;2023-09-30T11:44:03;98192.53;;;30.46;23.28
58373;BME280;44177;43.356;27.672;2023-09-30T11:46:32;98197.16;;;29.95;23.53
58373;BME280;44177;43.356;27.672;2023-09-30T11:49:03;98177.31;;;29.65;23.78
58373;BME280;44177;43.356;27.672;2023-09-30T11:51:34;98193.72;;;29.33;24.36
58373;BME280;44177;43.356;27.672;2023-09-30T11:54:08;98189.16;;;29.69;24.09
58373;BME280;44177;43.356;27.672;2023-09-30T11:56:36;98194.06;;;29.59;24.60
58373;BME280;44177;43.356;27.672;2023-09-30T11:59:02;98189.38;;;29.32;23.95
58373;BME280;44177;43.356;27.672;2023-09-30T12:01:27;98187.19;;;29.17;24.72
58373;BME280;44177;43.356;27.672;2023-09-30T12:03:56;98172.50;;;28.79;25.06
58373;BME280;44177;43.356;27.672;2023-09-30T12:06:23;98138.41;;;28.53;25.66
58373;BME280;44177;43.356;27.672;2023-09-30T12:08:49;98174.66;;;28.94;25.03
58373;BME280;44177;43.356;27.672;2023-09-30T12:11:20;98177.81;;;29.20;25.03
58373;BME280;44177;43.356;27.672;2023-09-30T12:13:45;98178.72;;;29.26;24.65
58373;BME280;44177;43.356;27.672;2023-09-30T12:16:14;98168.16;;;28.78;24.81
58373;BME280;44177;43.356;27.672;2023-09-30T12:18:40;98173.41;;;29.38;24.92
58373;BME280;44177;43.356;27.672;2023-09-30T12:21:10;98176.13;;;30.05;24.12
58373;BME280;44177;43.356;27.672;2023-09-30T12:23:36;98156.94;;;30.03;23.73
58373;BME280;44177;43.356;27.672;2023-09-30T12:26:02;98166.06;;;30.52;23.21
58373;BME280;44177;43.356;27.672;2023-09-30T12:28:33;98164.69;;;30.93;22.88
58373;BME280;44177;43.356;27.672;2023-09-30T12:31:00;98165.28;;;30.97;22.93
58373;BME280;44177;43.356;27.672;2023-09-30T12:33:30;98149.16;;;30.82;23.07
58373;BME280;44177;43.356;27.672;2023-09-30T12:35:56;98140.47;;;31.31;22.65
58373;BME280;44177;43.356;27.672;2023-09-30T12:38:25;98153.22;;;32.03;22.42
58373;BME280;44177;43.356;27.672;2023-09-30T12:40:52;98153.59;;;32.17;21.85
58373;BME280;44177;43.356;27.672;2023-09-30T12:43:18;98153.91;;;31.77;22.19
58373;BME280;44177;43.356;27.672;2023-09-30T12:45:44;98150.97;;;31.66;22.32
58373;BME280;44177;43.356;27.672;2023-09-30T12:48:10;98141.56;;;31.18;23.05
58373;BME280;44177;43.356;27.672;2023-09-30T12:50:36;98137.94;;;31.33;22.59
58373;BME280;44177;43.356;27.672;2023-09-30T12:53:01;98140.91;;;30.79;23.32
58373;BME280;44177;43.356;27.672;2023-09-30T12:55:27;98149.63;;;29.72;24.50
58373;BME280;44177;43.356;27.672;2023-09-30T12:57:52;98126.91;;;29.27;24.55
58373;BME280;44177;43.356;27.672;2023-09-30T13:00:18;98141.63;;;29.32;25.08
58373;BME280;44177;43.356;27.672;2023-09-30T13:02:44;98132.50;;;29.03;25.32
58373;BME280;44177;43.356;27.672;2023-09-30T13:05:11;98119.72;;;28.41;25.88
58373;BME280;44177;43.356;27.672;2023-09-30T13:07:37;98133.69;;;28.68;25.80
58373;BME280;44177;43.356;27.672;2023-09-30T13:10:03;98129.03;;;28.47;26.13
58373;BME280;44177;43.356;27.672;2023-09-30T13:12:30;98140.25;;;28.56;25.95